sensor_id;sensor_type;location;lat;lon;timestamp;P1;durP1;ratioP1;P2;durP2;ratioP2
5776;SDS011;2914;42.668;23.346;2023-03-11T00:00:03;13.80;;;10.40;;
5776;SDS011;2914;42.668;23.346;2023-03-11T00:02:37;14.70;;;10.80;;
5776;SDS011;2914;42.668;23.346;2023-03-11T00:05:06;12.47;;;11.13;;
5776;SDS011;2914;42.668;23.346;2023-03-11T00:07:38;13.20;;;10.60;;
5776;SDS011;2914;42.668;23.346;2023-03-11T00:10:09;7.40;;;6.67;;
5776;SDS011;2914;42.668;23.346;2023-03-11T00:12:41;5.43;;;4.93;;
5776;SDS011;2914;42.668;23.346;2023-03-11T00:15:19;4.43;;;4.23;;
5776;SDS011;2914;42.668;23.346;2023-03-11T00:17:48;3.47;;;3.30;;
5776;SDS011;2914;42.668;23.346;2023-03-11T00:20:19;2.53;;;2.33;;
5776;SDS011;2914;42.668;23.346;2023-03-11T00:22:51;2.13;;;1.80;;
5776;SDS011;2914;42.668;23.346;2023-03-11T00:25:22;2.17;;;2.00;;
5776;SDS011;2914;42.668;23.346;2023-03-11T00:27:53;1.60;;;1.33;;
5776;SDS011;2914;42.668;23.346;2023-03-11T00:30:23;6.70;;;1.30;;
5776;SDS011;2914;42.668;23.346;2023-03-11T00:32:53;1.83;;;1.57;;
5776;SDS011;2914;42.668;23.346;2023-03-11T00:35:25;2.80;;;1.10;;
5776;SDS011;2914;42.668;23.346;2023-03-11T00:37:58;4.93;;;1.10;;
5776;SDS011;2914;42.668;23.346;2023-03-11T00:40:29;2.53;;;1.03;;
5776;SDS011;2914;42.668;23.346;2023-03-11T00:43:00;0.90;;;0.80;;
5776;SDS011;2914;42.668;23.346;2023-03-11T00:45:30;2.23;;;0.90;;
5776;SDS011;2914;42.668;23.346;2023-03-11T00:48:00;1.10;;;0.83;;
5776;SDS011;2914;42.668;23.346;2023-03-11T00:50:29;4.97;;;0.93;;
5776;SDS011;2914;42.668;23.346;2023-03-11T00:53:00;1.10;;;1.00;;
5776;SDS011;2914;42.668;23.346;2023-03-11T00:55:32;0.80;;;0.73;;
5776;SDS011;2914;42.668;23.346;2023-03-11T00:58:03;1.20;;;0.90;;
5776;SDS011;2914;42.668;23.346;2023-03-11T01:00:34;1.00;;;0.83;;
5776;SDS011;2914;42.668;23.346;2023-03-11T01:03:04;0.90;;;0.73;;
5776;SDS011;2914;42.668;23.346;2023-03-11T01:05:33;1.90;;;0.97;;
5776;SDS011;2914;42.668;23.346;2023-03-11T01:08:03;1.13;;;0.77;;
5776;SDS011;2914;42.668;23.346;2023-03-11T01:10:33;1.07;;;0.97;;
5776;SDS011;2914;42.668;23.346;2023-03-11T01:13:03;1.40;;;1.00;;
5776;SDS011;2914;42.668;23.346;2023-03-11T01:15:33;0.90;;;0.80;;
5776;SDS011;2914;42.668;23.346;2023-03-11T01:18:04;5.93;;;1.30;;
5776;SDS011;2914;42.668;23.346;2023-03-11T01:20:48;1.10;;;1.00;;
5776;SDS011;2914;42.668;23.346;2023-03-11T01:23:18;1.57;;;0.90;;
5776;SDS011;2914;42.668;23.346;2023-03-11T01:25:48;1.67;;;0.90;;
5776;SDS011;2914;42.668;23.346;2023-03-11T01:28:17;0.90;;;0.70;;
5776;SDS011;2914;42.668;23.346;2023-03-11T01:30:46;1.10;;;1.00;;
5776;SDS011;2914;42.668;23.346;2023-03-11T01:33:17;3.83;;;1.00;;
5776;SDS011;2914;42.668;23.346;2023-03-11T01:35:46;1.20;;;1.10;;
5776;SDS011;2914;42.668;23.346;2023-03-11T01:38:15;2.80;;;1.07;;
5776;SDS011;2914;42.668;23.346;2023-03-11T01:40:45;0.90;;;0.80;;
5776;SDS011;2914;42.668;23.346;2023-03-11T01:46:32;2.20;;;1.10;;
5776;SDS011;2914;42.668;23.346;2023-03-11T01:49:04;1.13;;;1.03;;
5776;SDS011;2914;42.668;23.346;2023-03-11T01:51:39;1.73;;;1.00;;
5776;SDS011;2914;42.668;23.346;2023-03-11T01:54:23;2.47;;;0.87;;
5776;SDS011;2914;42.668;23.346;2023-03-11T01:56:54;2.07;;;1.60;;
5776;SDS011;2914;42.668;23.346;2023-03-11T01:59:25;1.40;;;1.30;;
5776;SDS011;2914;42.668;23.346;2023-03-11T02:01:57;2.03;;;1.70;;
5776;SDS011;2914;42.668;23.346;2023-03-11T02:04:29;3.90;;;2.20;;
5776;SDS011;2914;42.668;23.346;2023-03-11T02:07:02;2.70;;;2.10;;
5776;SDS011;2914;42.668;23.346;2023-03-11T02:09:35;2.63;;;2.47;;
5776;SDS011;2914;42.668;23.346;2023-03-11T02:12:05;3.27;;;2.97;;
5776;SDS011;2914;42.668;23.346;2023-03-11T02:14:38;10.73;;;3.40;;
5776;SDS011;2914;42.668;23.346;2023-03-11T02:17:16;4.70;;;2.60;;
5776;SDS011;2914;42.668;23.346;2023-03-11T02:19:50;2.63;;;2.53;;
5776;SDS011;2914;42.668;23.346;2023-03-11T02:22:36;3.00;;;2.80;;
5776;SDS011;2914;42.668;23.346;2023-03-11T02:25:07;3.30;;;3.00;;
5776;SDS011;2914;42.668;23.346;2023-03-11T02:27:39;2.10;;;2.00;;
5776;SDS011;2914;42.668;23.346;2023-03-11T02:30:13;7.67;;;3.00;;
5776;SDS011;2914;42.668;23.346;2023-03-11T02:32:43;2.80;;;2.60;;
5776;SDS011;2914;42.668;23.346;2023-03-11T02:35:15;3.17;;;3.07;;
5776;SDS011;2914;42.668;23.346;2023-03-11T02:37:48;3.20;;;2.90;;
5776;SDS011;2914;42.668;23.346;2023-03-11T02:43:09;2.67;;;2.50;;
5776;SDS011;2914;42.668;23.346;2023-03-11T02:45:41;4.73;;;2.90;;
5776;SDS011;2914;42.668;23.346;2023-03-11T02:48:13;2.57;;;2.47;;
5776;SDS011;2914;42.668;23.346;2023-03-11T02:50:44;3.33;;;3.03;;
5776;SDS011;2914;42.668;23.346;2023-03-11T02:53:14;3.87;;;3.07;;
5776;SDS011;2914;42.668;23.346;2023-03-11T02:55:43;3.70;;;3.50;;
5776;SDS011;2914;42.668;23.346;2023-03-11T02:58:12;3.80;;;3.50;;
5776;SDS011;2914;42.668;23.346;2023-03-11T03:00:41;3.33;;;3.13;;
5776;SDS011;2914;42.668;23.346;2023-03-11T03:03:10;3.53;;;3.43;;
5776;SDS011;2914;42.668;23.346;2023-03-11T03:05:40;4.40;;;4.00;;
5776;SDS011;2914;42.668;23.346;2023-03-11T03:08:11;5.07;;;4.67;;
5776;SDS011;2914;42.668;23.346;2023-03-11T03:10:48;5.77;;;5.27;;
5776;SDS011;2914;42.668;23.346;2023-03-11T03:13:18;5.63;;;5.10;;
5776;SDS011;2914;42.668;23.346;2023-03-11T03:15:56;5.00;;;4.60;;
5776;SDS011;2914;42.668;23.346;2023-03-11T03:18:27;5.17;;;4.77;;
5776;SDS011;2914;42.668;23.346;2023-03-11T03:20:56;7.57;;;4.70;;
5776;SDS011;2914;42.668;23.346;2023-03-11T03:23:26;5.90;;;5.33;;
5776;SDS011;2914;42.668;23.346;2023-03-11T03:25:55;4.80;;;4.50;;
5776;SDS011;2914;42.668;23.346;2023-03-11T03:28:25;5.93;;;5.43;;
5776;SDS011;2914;42.668;23.346;2023-03-11T03:30:55;4.70;;;4.40;;
5776;SDS011;2914;42.668;23.346;2023-03-11T03:33:29;11.60;;;4.57;;
5776;SDS011;2914;42.668;23.346;2023-03-11T03:35:58;6.27;;;5.20;;
5776;SDS011;2914;42.668;23.346;2023-03-11T03:38:29;4.90;;;4.40;;
5776;SDS011;2914;42.668;23.346;2023-03-11T03:40:58;3.90;;;3.70;;
5776;SDS011;2914;42.668;23.346;2023-03-11T03:43:28;8.40;;;4.30;;
5776;SDS011;2914;42.668;23.346;2023-03-11T03:45:58;4.13;;;3.83;;
5776;SDS011;2914;42.668;23.346;2023-03-11T03:48:29;4.03;;;3.73;;
5776;SDS011;2914;42.668;23.346;2023-03-11T03:51:02;4.13;;;3.93;;
5776;SDS011;2914;42.668;23.346;2023-03-11T03:53:33;3.70;;;3.50;;
5776;SDS011;2914;42.668;23.346;2023-03-11T03:56:03;3.30;;;3.10;;
5776;SDS011;2914;42.668;23.346;2023-03-11T03:58:35;3.67;;;3.40;;
5776;SDS011;2914;42.668;23.346;2023-03-11T04:01:05;2.70;;;2.50;;
5776;SDS011;2914;42.668;23.346;2023-03-11T04:03:37;1.87;;;1.77;;
5776;SDS011;2914;42.668;23.346;2023-03-11T04:06:08;1.37;;;1.27;;
5776;SDS011;2914;42.668;23.346;2023-03-11T04:08:40;2.50;;;2.30;;
5776;SDS011;2914;42.668;23.346;2023-03-11T04:11:09;4.37;;;4.07;;
5776;SDS011;2914;42.668;23.346;2023-03-11T04:13:40;4.13;;;3.77;;
5776;SDS011;2914;42.668;23.346;2023-03-11T04:16:12;2.50;;;2.40;;
5776;SDS011;2914;42.668;23.346;2023-03-11T04:18:50;3.47;;;2.80;;
5776;SDS011;2914;42.668;23.346;2023-03-11T04:21:22;3.70;;;3.50;;
5776;SDS011;2914;42.668;23.346;2023-03-11T04:23:52;2.47;;;2.37;;
5776;SDS011;2914;42.668;23.346;2023-03-11T04:26:24;1.60;;;1.43;;
5776;SDS011;2914;42.668;23.346;2023-03-11T04:28:53;1.43;;;1.20;;
5776;SDS011;2914;42.668;23.346;2023-03-11T04:31:23;1.00;;;0.90;;
5776;SDS011;2914;42.668;23.346;2023-03-11T04:33:52;1.00;;;0.90;;
5776;SDS011;2914;42.668;23.346;2023-03-11T04:36:23;0.97;;;0.70;;
5776;SDS011;2914;42.668;23.346;2023-03-11T04:38:54;0.80;;;0.60;;
5776;SDS011;2914;42.668;23.346;2023-03-11T04:41:23;0.80;;;0.60;;
5776;SDS011;2914;42.668;23.346;2023-03-11T04:43:53;1.07;;;0.70;;
5776;SDS011;2914;42.668;23.346;2023-03-11T04:46:23;0.90;;;0.63;;
5776;SDS011;2914;42.668;23.346;2023-03-11T04:48:52;0.90;;;0.63;;
5776;SDS011;2914;42.668;23.346;2023-03-11T04:51:21;0.80;;;0.60;;
5776;SDS011;2914;42.668;23.346;2023-03-11T04:53:51;0.80;;;0.70;;
5776;SDS011;2914;42.668;23.346;2023-03-11T04:56:20;1.67;;;0.50;;
5776;SDS011;2914;42.668;23.346;2023-03-11T05:01:26;0.80;;;0.50;;
5776;SDS011;2914;42.668;23.346;2023-03-11T05:03:59;0.90;;;0.63;;
5776;SDS011;2914;42.668;23.346;2023-03-11T05:06:29;1.10;;;1.00;;
5776;SDS011;2914;42.668;23.346;2023-03-11T05:08:59;2.40;;;0.70;;
5776;SDS011;2914;42.668;23.346;2023-03-11T05:11:30;1.97;;;0.70;;
5776;SDS011;2914;42.668;23.346;2023-03-11T05:13:59;0.80;;;0.53;;
5776;SDS011;2914;42.668;23.346;2023-03-11T05:16:29;0.80;;;0.60;;
5776;SDS011;2914;42.668;23.346;2023-03-11T05:19:00;1.20;;;0.70;;
5776;SDS011;2914;42.668;23.346;2023-03-11T05:21:37;0.90;;;0.77;;
5776;SDS011;2914;42.668;23.346;2023-03-11T05:24:07;1.63;;;0.63;;
5776;SDS011;2914;42.668;23.346;2023-03-11T05:26:36;0.87;;;0.70;;
5776;SDS011;2914;42.668;23.346;2023-03-11T05:29:06;0.90;;;0.70;;
5776;SDS011;2914;42.668;23.346;2023-03-11T05:31:35;1.20;;;1.10;;
5776;SDS011;2914;42.668;23.346;2023-03-11T05:34:04;0.90;;;0.80;;
5776;SDS011;2914;42.668;23.346;2023-03-11T05:36:34;0.90;;;0.73;;
5776;SDS011;2914;42.668;23.346;2023-03-11T05:39:03;0.90;;;0.70;;
5776;SDS011;2914;42.668;23.346;2023-03-11T05:41:32;0.80;;;0.60;;
5776;SDS011;2914;42.668;23.346;2023-03-11T05:44:02;1.57;;;1.00;;
5776;SDS011;2914;42.668;23.346;2023-03-11T05:46:31;1.30;;;0.93;;
5776;SDS011;2914;42.668;23.346;2023-03-11T05:49:00;1.13;;;0.60;;
5776;SDS011;2914;42.668;23.346;2023-03-11T05:51:30;0.93;;;0.83;;
5776;SDS011;2914;42.668;23.346;2023-03-11T05:53:59;0.90;;;0.77;;
5776;SDS011;2914;42.668;23.346;2023-03-11T05:56:29;2.53;;;0.90;;
5776;SDS011;2914;42.668;23.346;2023-03-11T05:58:58;0.97;;;0.50;;
5776;SDS011;2914;42.668;23.346;2023-03-11T06:01:27;1.00;;;0.90;;
5776;SDS011;2914;42.668;23.346;2023-03-11T06:03:56;3.70;;;0.97;;
5776;SDS011;2914;42.668;23.346;2023-03-11T06:06:28;0.80;;;0.60;;
5776;SDS011;2914;42.668;23.346;2023-03-11T06:08:57;0.80;;;0.70;;
5776;SDS011;2914;42.668;23.346;2023-03-11T06:11:27;1.10;;;1.00;;
5776;SDS011;2914;42.668;23.346;2023-03-11T06:13:57;1.10;;;0.87;;
5776;SDS011;2914;42.668;23.346;2023-03-11T06:16:34;0.90;;;0.77;;
5776;SDS011;2914;42.668;23.346;2023-03-11T06:19:03;0.90;;;0.70;;
5776;SDS011;2914;42.668;23.346;2023-03-11T06:21:33;1.83;;;1.00;;
5776;SDS011;2914;42.668;23.346;2023-03-11T06:24:04;3.43;;;0.90;;
5776;SDS011;2914;42.668;23.346;2023-03-11T06:26:40;1.33;;;1.23;;
5776;SDS011;2914;42.668;23.346;2023-03-11T06:29:12;1.00;;;0.90;;
5776;SDS011;2914;42.668;23.346;2023-03-11T06:31:42;4.13;;;1.20;;
5776;SDS011;2914;42.668;23.346;2023-03-11T06:34:11;1.27;;;1.17;;
5776;SDS011;2914;42.668;23.346;2023-03-11T06:36:42;1.10;;;1.00;;
5776;SDS011;2914;42.668;23.346;2023-03-11T06:39:25;1.50;;;1.40;;
5776;SDS011;2914;42.668;23.346;2023-03-11T06:41:54;3.20;;;1.17;;
5776;SDS011;2914;42.668;23.346;2023-03-11T06:44:24;1.40;;;1.27;;
5776;SDS011;2914;42.668;23.346;2023-03-11T06:47:02;4.20;;;0.97;;
5776;SDS011;2914;42.668;23.346;2023-03-11T06:49:33;0.90;;;0.80;;
5776;SDS011;2914;42.668;23.346;2023-03-11T06:52:05;1.47;;;0.80;;
5776;SDS011;2914;42.668;23.346;2023-03-11T06:54:35;1.27;;;0.90;;
5776;SDS011;2914;42.668;23.346;2023-03-11T06:57:06;1.07;;;0.97;;
5776;SDS011;2914;42.668;23.346;2023-03-11T06:59:37;0.83;;;0.70;;
5776;SDS011;2914;42.668;23.346;2023-03-11T07:02:09;0.90;;;0.80;;
5776;SDS011;2914;42.668;23.346;2023-03-11T07:04:48;1.20;;;1.10;;
5776;SDS011;2914;42.668;23.346;2023-03-11T07:07:18;3.20;;;0.93;;
5776;SDS011;2914;42.668;23.346;2023-03-11T07:09:47;1.00;;;0.77;;
5776;SDS011;2914;42.668;23.346;2023-03-11T07:12:16;0.97;;;0.80;;
5776;SDS011;2914;42.668;23.346;2023-03-11T07:15:00;1.07;;;0.97;;
5776;SDS011;2914;42.668;23.346;2023-03-11T07:17:30;2.00;;;0.70;;
5776;SDS011;2914;42.668;23.346;2023-03-11T07:20:13;5.47;;;0.83;;
5776;SDS011;2914;42.668;23.346;2023-03-11T07:22:42;1.00;;;0.90;;
5776;SDS011;2914;42.668;23.346;2023-03-11T07:25:13;1.00;;;0.83;;
5776;SDS011;2914;42.668;23.346;2023-03-11T07:33:43;1.00;;;0.90;;
5776;SDS011;2914;42.668;23.346;2023-03-11T07:36:31;2.20;;;1.00;;
5776;SDS011;2914;42.668;23.346;2023-03-11T07:39:02;0.90;;;0.80;;
5776;SDS011;2914;42.668;23.346;2023-03-11T07:41:32;1.40;;;1.30;;
5776;SDS011;2914;42.668;23.346;2023-03-11T07:44:02;1.80;;;1.70;;
5776;SDS011;2914;42.668;23.346;2023-03-11T07:46:32;1.30;;;1.00;;
5776;SDS011;2914;42.668;23.346;2023-03-11T07:49:01;1.30;;;0.70;;
5776;SDS011;2914;42.668;23.346;2023-03-11T07:51:31;1.33;;;0.80;;
5776;SDS011;2914;42.668;23.346;2023-03-11T07:54:01;2.50;;;1.07;;
5776;SDS011;2914;42.668;23.346;2023-03-11T07:56:32;0.93;;;0.80;;
5776;SDS011;2914;42.668;23.346;2023-03-11T07:59:04;1.20;;;1.00;;
5776;SDS011;2914;42.668;23.346;2023-03-11T08:01:33;1.20;;;1.10;;
5776;SDS011;2914;42.668;23.346;2023-03-11T08:04:05;1.30;;;1.20;;
5776;SDS011;2914;42.668;23.346;2023-03-11T08:06:37;2.80;;;1.37;;
5776;SDS011;2914;42.668;23.346;2023-03-11T08:09:08;4.60;;;1.47;;
5776;SDS011;2914;42.668;23.346;2023-03-11T08:11:38;1.87;;;1.00;;
5776;SDS011;2914;42.668;23.346;2023-03-11T08:14:07;1.53;;;1.43;;
5776;SDS011;2914;42.668;23.346;2023-03-11T08:16:45;1.50;;;1.20;;
5776;SDS011;2914;42.668;23.346;2023-03-11T08:19:14;1.57;;;1.20;;
5776;SDS011;2914;42.668;23.346;2023-03-11T08:21:44;1.30;;;1.20;;
5776;SDS011;2914;42.668;23.346;2023-03-11T08:24:13;2.50;;;0.83;;
5776;SDS011;2914;42.668;23.346;2023-03-11T08:26:43;2.80;;;1.00;;
5776;SDS011;2914;42.668;23.346;2023-03-11T08:29:12;1.17;;;1.07;;
5776;SDS011;2914;42.668;23.346;2023-03-11T08:31:41;1.30;;;1.20;;
5776;SDS011;2914;42.668;23.346;2023-03-11T08:34:15;1.67;;;1.20;;
5776;SDS011;2914;42.668;23.346;2023-03-11T08:36:42;5.53;;;1.00;;
5776;SDS011;2914;42.668;23.346;2023-03-11T08:39:12;2.83;;;0.70;;
5776;SDS011;2914;42.668;23.346;2023-03-11T08:41:41;1.20;;;1.07;;
5776;SDS011;2914;42.668;23.346;2023-03-11T08:44:11;1.33;;;1.10;;
5776;SDS011;2914;42.668;23.346;2023-03-11T08:46:40;1.17;;;1.07;;
5776;SDS011;2914;42.668;23.346;2023-03-11T08:49:09;2.13;;;1.50;;
5776;SDS011;2914;42.668;23.346;2023-03-11T08:51:38;2.00;;;1.10;;
5776;SDS011;2914;42.668;23.346;2023-03-11T08:54:16;3.37;;;1.20;;
5776;SDS011;2914;42.668;23.346;2023-03-11T08:56:45;1.10;;;1.00;;
5776;SDS011;2914;42.668;23.346;2023-03-11T08:59:23;1.50;;;1.13;;
5776;SDS011;2914;42.668;23.346;2023-03-11T09:01:52;1.80;;;1.00;;
5776;SDS011;2914;42.668;23.346;2023-03-11T09:04:30;1.53;;;1.00;;
5776;SDS011;2914;42.668;23.346;2023-03-11T09:06:59;3.00;;;1.10;;
5776;SDS011;2914;42.668;23.346;2023-03-11T09:09:28;3.30;;;1.10;;
5776;SDS011;2914;42.668;23.346;2023-03-11T09:12:06;3.13;;;1.40;;
5776;SDS011;2914;42.668;23.346;2023-03-11T09:14:39;6.30;;;1.87;;
5776;SDS011;2914;42.668;23.346;2023-03-11T09:17:09;1.67;;;1.23;;
5776;SDS011;2914;42.668;23.346;2023-03-11T09:19:39;1.10;;;1.00;;
5776;SDS011;2914;42.668;23.346;2023-03-11T09:22:08;1.10;;;1.00;;
5776;SDS011;2914;42.668;23.346;2023-03-11T09:24:52;1.20;;;1.10;;
5776;SDS011;2914;42.668;23.346;2023-03-11T09:27:21;1.67;;;1.07;;
5776;SDS011;2914;42.668;23.346;2023-03-11T09:29:50;2.13;;;1.30;;
5776;SDS011;2914;42.668;23.346;2023-03-11T09:32:19;1.73;;;1.30;;
5776;SDS011;2914;42.668;23.346;2023-03-11T09:34:55;1.10;;;0.90;;
5776;SDS011;2914;42.668;23.346;2023-03-11T09:37:25;2.40;;;1.47;;
5776;SDS011;2914;42.668;23.346;2023-03-11T09:39:55;1.27;;;1.17;;
5776;SDS011;2914;42.668;23.346;2023-03-11T09:42:26;3.73;;;1.57;;
5776;SDS011;2914;42.668;23.346;2023-03-11T09:44:58;2.03;;;1.33;;
5776;SDS011;2914;42.668;23.346;2023-03-11T09:47:32;1.73;;;1.13;;
5776;SDS011;2914;42.668;23.346;2023-03-11T09:55:52;2.17;;;0.97;;
5776;SDS011;2914;42.668;23.346;2023-03-11T09:58:25;1.60;;;1.50;;
5776;SDS011;2914;42.668;23.346;2023-03-11T10:00:58;2.63;;;1.33;;
5776;SDS011;2914;42.668;23.346;2023-03-11T10:03:30;1.40;;;1.30;;
5776;SDS011;2914;42.668;23.346;2023-03-11T10:06:07;2.10;;;1.40;;
5776;SDS011;2914;42.668;23.346;2023-03-11T10:08:43;7.40;;;1.00;;
5776;SDS011;2914;42.668;23.346;2023-03-11T10:11:26;1.60;;;1.50;;
5776;SDS011;2914;42.668;23.346;2023-03-11T10:14:09;7.13;;;1.20;;
5776;SDS011;2914;42.668;23.346;2023-03-11T10:16:44;1.93;;;1.10;;
5776;SDS011;2914;42.668;23.346;2023-03-11T10:19:31;4.00;;;0.90;;
5776;SDS011;2914;42.668;23.346;2023-03-11T10:22:06;1.10;;;1.00;;
5776;SDS011;2914;42.668;23.346;2023-03-11T10:24:46;2.03;;;1.10;;
5776;SDS011;2914;42.668;23.346;2023-03-11T10:27:27;1.63;;;0.83;;
5776;SDS011;2914;42.668;23.346;2023-03-11T10:30:02;3.70;;;1.10;;
5776;SDS011;2914;42.668;23.346;2023-03-11T10:32:45;1.43;;;1.00;;
5776;SDS011;2914;42.668;23.346;2023-03-11T10:35:18;1.77;;;0.93;;
5776;SDS011;2914;42.668;23.346;2023-03-11T10:37:51;2.90;;;1.27;;
5776;SDS011;2914;42.668;23.346;2023-03-11T10:40:36;1.70;;;1.10;;
5776;SDS011;2914;42.668;23.346;2023-03-11T10:43:09;2.60;;;1.00;;
5776;SDS011;2914;42.668;23.346;2023-03-11T10:45:48;4.50;;;1.00;;
5776;SDS011;2914;42.668;23.346;2023-03-11T10:48:20;1.27;;;1.17;;
5776;SDS011;2914;42.668;23.346;2023-03-11T10:50:53;9.87;;;1.57;;
5776;SDS011;2914;42.668;23.346;2023-03-11T10:53:33;1.10;;;0.90;;
5776;SDS011;2914;42.668;23.346;2023-03-11T10:56:30;5.67;;;1.10;;
5776;SDS011;2914;42.668;23.346;2023-03-11T10:59:01;1.10;;;1.00;;
5776;SDS011;2914;42.668;23.346;2023-03-11T11:01:46;3.20;;;1.20;;
5776;SDS011;2914;42.668;23.346;2023-03-11T11:04:33;1.40;;;1.23;;
5776;SDS011;2914;42.668;23.346;2023-03-11T11:07:20;1.40;;;1.30;;
5776;SDS011;2914;42.668;23.346;2023-03-11T11:12:57;2.40;;;1.17;;
5776;SDS011;2914;42.668;23.346;2023-03-11T11:15:30;1.43;;;1.07;;
5776;SDS011;2914;42.668;23.346;2023-03-11T11:18:15;3.27;;;1.50;;
5776;SDS011;2914;42.668;23.346;2023-03-11T11:20:53;1.53;;;1.30;;
5776;SDS011;2914;42.668;23.346;2023-03-11T11:23:49;2.07;;;1.30;;
5776;SDS011;2914;42.668;23.346;2023-03-11T11:26:20;1.67;;;1.57;;
5776;SDS011;2914;42.668;23.346;2023-03-11T11:29:03;1.67;;;1.57;;
5776;SDS011;2914;42.668;23.346;2023-03-11T11:31:36;3.20;;;1.67;;
5776;SDS011;2914;42.668;23.346;2023-03-11T11:34:19;6.07;;;1.60;;
5776;SDS011;2914;42.668;23.346;2023-03-11T11:36:55;10.13;;;1.60;;
5776;SDS011;2914;42.668;23.346;2023-03-11T11:39:27;2.43;;;1.10;;
5776;SDS011;2914;42.668;23.346;2023-03-11T11:41:59;2.27;;;1.27;;
5776;SDS011;2914;42.668;23.346;2023-03-11T11:44:43;1.97;;;1.00;;
5776;SDS011;2914;42.668;23.346;2023-03-11T11:47:16;1.83;;;1.10;;
5776;SDS011;2914;42.668;23.346;2023-03-11T11:50:02;1.30;;;1.20;;
5776;SDS011;2914;42.668;23.346;2023-03-11T11:52:36;4.13;;;1.30;;
5776;SDS011;2914;42.668;23.346;2023-03-11T11:55:21;13.43;;;8.90;;
5776;SDS011;2914;42.668;23.346;2023-03-11T11:58:10;7.00;;;4.33;;
5776;SDS011;2914;42.668;23.346;2023-03-11T12:00:41;2.90;;;2.47;;
5776;SDS011;2914;42.668;23.346;2023-03-11T12:03:39;1.30;;;1.13;;
5776;SDS011;2914;42.668;23.346;2023-03-11T12:06:19;1.97;;;1.30;;
5776;SDS011;2914;42.668;23.346;2023-03-11T12:09:04;1.50;;;1.40;;
5776;SDS011;2914;42.668;23.346;2023-03-11T12:11:37;4.13;;;1.57;;
5776;SDS011;2914;42.668;23.346;2023-03-11T12:14:10;3.00;;;1.30;;
5776;SDS011;2914;42.668;23.346;2023-03-11T12:16:51;3.10;;;1.70;;
5776;SDS011;2914;42.668;23.346;2023-03-11T12:19:38;1.30;;;1.00;;
5776;SDS011;2914;42.668;23.346;2023-03-11T12:22:23;1.63;;;0.97;;
5776;SDS011;2914;42.668;23.346;2023-03-11T12:25:22;1.67;;;1.13;;
5776;SDS011;2914;42.668;23.346;2023-03-11T12:28:12;1.33;;;1.20;;
5776;SDS011;2914;42.668;23.346;2023-03-11T12:33:29;2.50;;;1.00;;
5776;SDS011;2914;42.668;23.346;2023-03-11T12:36:01;2.03;;;1.10;;
5776;SDS011;2914;42.668;23.346;2023-03-11T12:38:35;3.43;;;1.13;;
5776;SDS011;2914;42.668;23.346;2023-03-11T12:41:11;2.13;;;1.30;;
5776;SDS011;2914;42.668;23.346;2023-03-11T12:44:01;3.37;;;1.43;;
5776;SDS011;2914;42.668;23.346;2023-03-11T12:49:44;1.23;;;1.13;;
5776;SDS011;2914;42.668;23.346;2023-03-11T12:52:28;2.40;;;0.90;;
5776;SDS011;2914;42.668;23.346;2023-03-11T13:04:45;1.20;;;1.00;;
5776;SDS011;2914;42.668;23.346;2023-03-11T13:10:13;1.20;;;1.10;;
5776;SDS011;2914;42.668;23.346;2023-03-11T13:12:45;2.70;;;1.30;;
5776;SDS011;2914;42.668;23.346;2023-03-11T13:15:33;1.90;;;1.50;;
5776;SDS011;2914;42.668;23.346;2023-03-11T13:20:51;4.50;;;1.27;;
5776;SDS011;2914;42.668;23.346;2023-03-11T13:23:28;5.43;;;1.30;;
5776;SDS011;2914;42.668;23.346;2023-03-11T13:29:25;4.00;;;1.30;;
5776;SDS011;2914;42.668;23.346;2023-03-11T13:35:15;1.50;;;1.40;;
5776;SDS011;2914;42.668;23.346;2023-03-11T13:37:50;2.33;;;1.20;;
5776;SDS011;2914;42.668;23.346;2023-03-11T13:40:31;1.40;;;1.30;;
5776;SDS011;2914;42.668;23.346;2023-03-11T13:43:02;3.20;;;1.50;;
5776;SDS011;2914;42.668;23.346;2023-03-11T13:45:41;1.40;;;1.27;;
5776;SDS011;2914;42.668;23.346;2023-03-11T13:50:59;1.53;;;1.10;;
5776;SDS011;2914;42.668;23.346;2023-03-11T13:56:16;1.10;;;1.00;;
5776;SDS011;2914;42.668;23.346;2023-03-11T13:58:47;5.53;;;1.60;;
5776;SDS011;2914;42.668;23.346;2023-03-11T14:01:26;1.43;;;1.20;;
5776;SDS011;2914;42.668;23.346;2023-03-11T14:03:55;1.63;;;1.07;;
5776;SDS011;2914;42.668;23.346;2023-03-11T14:06:26;3.63;;;1.63;;
5776;SDS011;2914;42.668;23.346;2023-03-11T14:08:57;2.03;;;1.30;;
5776;SDS011;2914;42.668;23.346;2023-03-11T14:11:35;1.43;;;1.33;;
5776;SDS011;2914;42.668;23.346;2023-03-11T14:16:52;2.60;;;1.97;;
5776;SDS011;2914;42.668;23.346;2023-03-11T14:19:23;2.27;;;1.97;;
5776;SDS011;2914;42.668;23.346;2023-03-11T14:22:08;1.80;;;1.70;;
5776;SDS011;2914;42.668;23.346;2023-03-11T14:24:38;5.93;;;1.73;;
5776;SDS011;2914;42.668;23.346;2023-03-11T14:27:16;1.50;;;1.40;;
5776;SDS011;2914;42.668;23.346;2023-03-11T14:29:45;1.73;;;1.63;;
5776;SDS011;2914;42.668;23.346;2023-03-11T14:32:29;4.73;;;1.50;;
5776;SDS011;2914;42.668;23.346;2023-03-11T14:35:00;1.90;;;1.80;;
5776;SDS011;2914;42.668;23.346;2023-03-11T14:37:31;2.00;;;1.80;;
5776;SDS011;2914;42.668;23.346;2023-03-11T14:40:03;2.20;;;1.23;;
5776;SDS011;2914;42.668;23.346;2023-03-11T14:42:52;4.10;;;1.20;;
5776;SDS011;2914;42.668;23.346;2023-03-11T14:45:24;1.87;;;1.27;;
5776;SDS011;2914;42.668;23.346;2023-03-11T14:48:11;1.60;;;1.50;;
5776;SDS011;2914;42.668;23.346;2023-03-11T14:50:45;1.63;;;1.53;;
5776;SDS011;2914;42.668;23.346;2023-03-11T14:56:17;1.97;;;1.73;;
5776;SDS011;2914;42.668;23.346;2023-03-11T14:59:02;2.70;;;1.83;;
5776;SDS011;2914;42.668;23.346;2023-03-11T15:01:34;1.90;;;1.80;;
5776;SDS011;2914;42.668;23.346;2023-03-11T15:04:07;1.80;;;1.70;;
5776;SDS011;2914;42.668;23.346;2023-03-11T15:06:40;2.60;;;2.40;;
5776;SDS011;2914;42.668;23.346;2023-03-11T15:09:12;4.07;;;2.33;;
5776;SDS011;2914;42.668;23.346;2023-03-11T15:11:50;4.13;;;1.90;;
5776;SDS011;2914;42.668;23.346;2023-03-11T15:14:21;1.97;;;1.87;;
5776;SDS011;2914;42.668;23.346;2023-03-11T15:17:09;2.33;;;1.83;;
5776;SDS011;2914;42.668;23.346;2023-03-11T15:19:42;3.50;;;2.93;;
5776;SDS011;2914;42.668;23.346;2023-03-11T15:22:27;3.27;;;2.93;;
5776;SDS011;2914;42.668;23.346;2023-03-11T15:27:40;3.67;;;2.60;;
5776;SDS011;2914;42.668;23.346;2023-03-11T15:32:59;4.50;;;2.47;;
5776;SDS011;2914;42.668;23.346;2023-03-11T15:35:30;5.23;;;2.43;;
5776;SDS011;2914;42.668;23.346;2023-03-11T15:38:18;4.50;;;2.77;;
5776;SDS011;2914;42.668;23.346;2023-03-11T15:40:51;2.23;;;2.13;;
5776;SDS011;2914;42.668;23.346;2023-03-11T15:43:40;6.87;;;2.40;;
5776;SDS011;2914;42.668;23.346;2023-03-11T15:46:12;4.20;;;2.37;;
5776;SDS011;2914;42.668;23.346;2023-03-11T15:48:56;11.80;;;3.30;;
5776;SDS011;2914;42.668;23.346;2023-03-11T15:51:25;2.60;;;2.40;;
5776;SDS011;2914;42.668;23.346;2023-03-11T15:53:54;2.73;;;2.53;;
5776;SDS011;2914;42.668;23.346;2023-03-11T15:56:23;3.97;;;3.67;;
5776;SDS011;2914;42.668;23.346;2023-03-11T15:58:53;5.50;;;4.40;;
5776;SDS011;2914;42.668;23.346;2023-03-11T16:01:25;4.17;;;3.77;;
5776;SDS011;2914;42.668;23.346;2023-03-11T16:03:56;4.37;;;4.07;;
5776;SDS011;2914;42.668;23.346;2023-03-11T16:06:25;5.60;;;5.20;;
5776;SDS011;2914;42.668;23.346;2023-03-11T16:08:54;5.57;;;4.90;;
5776;SDS011;2914;42.668;23.346;2023-03-11T16:11:25;10.47;;;5.77;;
5776;SDS011;2914;42.668;23.346;2023-03-11T16:13:57;7.53;;;5.40;;
5776;SDS011;2914;42.668;23.346;2023-03-11T16:16:26;6.40;;;5.80;;
5776;SDS011;2914;42.668;23.346;2023-03-11T16:19:09;10.87;;;7.23;;
5776;SDS011;2914;42.668;23.346;2023-03-11T16:21:42;8.30;;;6.03;;
5776;SDS011;2914;42.668;23.346;2023-03-11T16:24:17;6.67;;;5.80;;
5776;SDS011;2914;42.668;23.346;2023-03-11T16:26:48;5.00;;;4.60;;
5776;SDS011;2914;42.668;23.346;2023-03-11T16:29:18;4.40;;;4.10;;
5776;SDS011;2914;42.668;23.346;2023-03-11T16:31:48;4.50;;;4.20;;
5776;SDS011;2914;42.668;23.346;2023-03-11T16:34:18;6.20;;;4.50;;
5776;SDS011;2914;42.668;23.346;2023-03-11T16:36:55;4.73;;;4.43;;
5776;SDS011;2914;42.668;23.346;2023-03-11T16:39:24;5.00;;;4.60;;
5776;SDS011;2914;42.668;23.346;2023-03-11T16:41:53;5.03;;;4.63;;
5776;SDS011;2914;42.668;23.346;2023-03-11T16:44:23;4.03;;;3.83;;